sensor_id;sensor_type;location;lat;lon;timestamp;pressure;altitude;pressure_sealevel;temperature;humidity
21988;BME280;11158;53.404;-1.510;2023-08-06T00:02:15;100300.53;;;15.62;56.50
21988;BME280;11158;53.404;-1.510;2023-08-06T00:04:59;100300.78;;;15.86;55.54
21988;BME280;11158;53.404;-1.510;2023-08-06T00:07:44;100304.59;;;15.46;56.50
21988;BME280;11158;53.404;-1.510;2023-08-06T00:10:29;100307.25;;;15.21;57.31
21988;BME280;11158;53.404;-1.510;2023-08-06T00:13:13;100310.59;;;15.48;56.64
21988;BME280;11158;53.404;-1.510;2023-08-06T00:16:11;100313.34;;;15.42;57.13
21988;BME280;11158;53.404;-1.510;2023-08-06T00:18:56;100306.25;;;15.47;56.21
21988;BME280;11158;53.404;-1.510;2023-08-06T00:21:40;100311.41;;;15.17;57.18
21988;BME280;11158;53.404;-1.510;2023-08-06T00:24:24;100316.84;;;15.42;56.60
21988;BME280;11158;53.404;-1.510;2023-08-06T00:27:08;100320.56;;;15.41;56.15
21988;BME280;11158;53.404;-1.510;2023-08-06T00:29:52;100319.50;;;15.49;56.06
21988;BME280;11158;53.404;-1.510;2023-08-06T00:32:36;100320.13;;;15.19;57.04
21988;BME280;11158;53.404;-1.510;2023-08-06T00:35:21;100311.13;;;15.57;55.77
21988;BME280;11158;53.404;-1.510;2023-08-06T00:38:05;100318.19;;;15.58;55.71
21988;BME280;11158;53.404;-1.510;2023-08-06T00:40:49;100322.25;;;15.67;55.87
21988;BME280;11158;53.404;-1.510;2023-08-06T00:43:33;100317.97;;;15.85;55.43
21988;BME280;11158;53.404;-1.510;2023-08-06T00:46:17;100314.47;;;15.53;56.16
21988;BME280;11158;53.404;-1.510;2023-08-06T00:49:01;100323.88;;;15.75;56.01
21988;BME280;11158;53.404;-1.510;2023-08-06T00:51:47;100323.91;;;15.68;56.24
21988;BME280;11158;53.404;-1.510;2023-08-06T00:54:31;100326.50;;;15.82;55.49
21988;BME280;11158;53.404;-1.510;2023-08-06T00:57:16;100321.84;;;15.70;56.16
21988;BME280;11158;53.404;-1.510;2023-08-06T01:00:01;100325.44;;;15.58;56.10
21988;BME280;11158;53.404;-1.510;2023-08-06T01:02:46;100329.78;;;15.59;56.02
21988;BME280;11158;53.404;-1.510;2023-08-06T01:05:30;100329.81;;;15.84;55.27
21988;BME280;11158;53.404;-1.510;2023-08-06T01:11:38;100335.84;;;16.04;54.93
21988;BME280;11158;53.404;-1.510;2023-08-06T01:14:52;100338.84;;;16.15;54.66
21988;BME280;11158;53.404;-1.510;2023-08-06T01:17:38;100341.78;;;16.13;54.51
21988;BME280;11158;53.404;-1.510;2023-08-06T01:20:31;100342.91;;;16.24;54.03
21988;BME280;11158;53.404;-1.510;2023-08-06T01:23:15;100351.66;;;16.19;54.26
21988;BME280;11158;53.404;-1.510;2023-08-06T01:29:12;100350.22;;;15.98;55.13
21988;BME280;11158;53.404;-1.510;2023-08-06T01:31:59;100345.72;;;15.92;55.54
21988;BME280;11158;53.404;-1.510;2023-08-06T01:34:44;100347.81;;;15.58;55.96
21988;BME280;11158;53.404;-1.510;2023-08-06T01:37:43;100358.50;;;15.40;57.26
21988;BME280;11158;53.404;-1.510;2023-08-06T01:40:27;100356.78;;;15.84;55.76
21988;BME280;11158;53.404;-1.510;2023-08-06T01:43:13;100361.38;;;16.02;55.29
21988;BME280;11158;53.404;-1.510;2023-08-06T01:45:57;100358.53;;;15.72;56.06
21988;BME280;11158;53.404;-1.510;2023-08-06T01:48:41;100358.19;;;15.86;55.44
21988;BME280;11158;53.404;-1.510;2023-08-06T01:51:25;100363.69;;;15.66;56.29
21988;BME280;11158;53.404;-1.510;2023-08-06T01:54:09;100366.78;;;15.77;56.26
21988;BME280;11158;53.404;-1.510;2023-08-06T01:56:53;100364.63;;;15.54;56.37
21988;BME280;11158;53.404;-1.510;2023-08-06T01:59:37;100363.75;;;15.60;56.41
21988;BME280;11158;53.404;-1.510;2023-08-06T02:02:21;100370.28;;;15.77;55.73
21988;BME280;11158;53.404;-1.510;2023-08-06T02:05:05;100368.59;;;15.83;55.87
21988;BME280;11158;53.404;-1.510;2023-08-06T02:07:50;100366.84;;;15.95;55.62
21988;BME280;11158;53.404;-1.510;2023-08-06T02:10:34;100373.25;;;15.94;55.33
21988;BME280;11158;53.404;-1.510;2023-08-06T02:13:19;100371.16;;;15.96;55.58
21988;BME280;11158;53.404;-1.510;2023-08-06T02:16:03;100369.84;;;16.05;54.98
21988;BME280;11158;53.404;-1.510;2023-08-06T02:18:47;100371.22;;;15.89;55.36
21988;BME280;11158;53.404;-1.510;2023-08-06T02:21:32;100375.13;;;15.94;55.38
21988;BME280;11158;53.404;-1.510;2023-08-06T02:24:16;100384.38;;;16.04;55.10
21988;BME280;11158;53.404;-1.510;2023-08-06T02:27:00;100382.84;;;16.15;54.81
21988;BME280;11158;53.404;-1.510;2023-08-06T02:29:45;100382.34;;;15.68;55.87
21988;BME280;11158;53.404;-1.510;2023-08-06T02:32:28;100376.19;;;15.93;55.49
21988;BME280;11158;53.404;-1.510;2023-08-06T02:35:15;100379.16;;;15.84;55.40
21988;BME280;11158;53.404;-1.510;2023-08-06T02:37:59;100376.69;;;15.83;55.31
21988;BME280;11158;53.404;-1.510;2023-08-06T02:40:44;100372.50;;;15.87;55.46
21988;BME280;11158;53.404;-1.510;2023-08-06T02:43:32;100370.34;;;15.96;55.02
21988;BME280;11158;53.404;-1.510;2023-08-06T02:46:16;100372.41;;;15.68;55.82
21988;BME280;11158;53.404;-1.510;2023-08-06T02:49:00;100369.75;;;15.94;55.07
21988;BME280;11158;53.404;-1.510;2023-08-06T02:51:47;100372.59;;;15.99;55.14
21988;BME280;11158;53.404;-1.510;2023-08-06T02:54:31;100373.44;;;15.99;54.77
21988;BME280;11158;53.404;-1.510;2023-08-06T02:57:15;100377.31;;;16.03;54.64
21988;BME280;11158;53.404;-1.510;2023-08-06T02:59:59;100372.19;;;16.02;54.65
21988;BME280;11158;53.404;-1.510;2023-08-06T03:02:43;100375.53;;;15.97;54.88
21988;BME280;11158;53.404;-1.510;2023-08-06T03:05:27;100379.16;;;15.84;54.74
21988;BME280;11158;53.404;-1.510;2023-08-06T03:08:11;100383.59;;;15.72;55.30
21988;BME280;11158;53.404;-1.510;2023-08-06T03:10:55;100383.16;;;15.68;55.26
21988;BME280;11158;53.404;-1.510;2023-08-06T03:13:39;100378.28;;;15.59;55.12
21988;BME280;11158;53.404;-1.510;2023-08-06T03:16:23;100375.91;;;15.76;54.79
21988;BME280;11158;53.404;-1.510;2023-08-06T03:19:07;100383.06;;;15.57;55.33
21988;BME280;11158;53.404;-1.510;2023-08-06T03:21:51;100384.44;;;15.66;55.02
21988;BME280;11158;53.404;-1.510;2023-08-06T03:24:35;100378.47;;;15.57;55.54
21988;BME280;11158;53.404;-1.510;2023-08-06T03:27:19;100378.94;;;15.54;55.04
21988;BME280;11158;53.404;-1.510;2023-08-06T03:30:04;100382.09;;;15.83;54.36
21988;BME280;11158;53.404;-1.510;2023-08-06T03:32:48;100384.97;;;15.49;54.98
21988;BME280;11158;53.404;-1.510;2023-08-06T03:35:32;100381.28;;;15.44;54.41
21988;BME280;11158;53.404;-1.510;2023-08-06T03:38:16;100381.06;;;15.45;54.43
21988;BME280;11158;53.404;-1.510;2023-08-06T03:41:00;100380.06;;;15.40;54.76
21988;BME280;11158;53.404;-1.510;2023-08-06T03:43:44;100381.28;;;15.44;54.51
21988;BME280;11158;53.404;-1.510;2023-08-06T03:46:28;100388.41;;;15.63;53.75
21988;BME280;11158;53.404;-1.510;2023-08-06T03:49:12;100383.47;;;15.92;53.08
21988;BME280;11158;53.404;-1.510;2023-08-06T03:51:57;100379.72;;;15.93;53.01
21988;BME280;11158;53.404;-1.510;2023-08-06T03:54:41;100380.47;;;16.00;52.85
21988;BME280;11158;53.404;-1.510;2023-08-06T03:57:27;100382.00;;;15.89;53.00
21988;BME280;11158;53.404;-1.510;2023-08-06T04:00:11;100380.25;;;15.77;53.15
21988;BME280;11158;53.404;-1.510;2023-08-06T04:02:56;100389.97;;;15.78;52.94
21988;BME280;11158;53.404;-1.510;2023-08-06T04:05:40;100388.47;;;15.50;53.58
21988;BME280;11158;53.404;-1.510;2023-08-06T04:08:24;100391.16;;;15.50;53.58
21988;BME280;11158;53.404;-1.510;2023-08-06T04:11:08;100392.31;;;15.36;54.24
21988;BME280;11158;53.404;-1.510;2023-08-06T04:13:52;100390.75;;;15.85;52.77
21988;BME280;11158;53.404;-1.510;2023-08-06T04:16:38;100387.94;;;15.98;52.78
21988;BME280;11158;53.404;-1.510;2023-08-06T04:19:22;100394.16;;;16.24;52.23
21988;BME280;11158;53.404;-1.510;2023-08-06T04:22:06;100399.63;;;16.61;51.67
21988;BME280;11158;53.404;-1.510;2023-08-06T04:24:50;100395.22;;;16.85;51.15
21988;BME280;11158;53.404;-1.510;2023-08-06T04:27:34;100400.38;;;17.05;50.63
21988;BME280;11158;53.404;-1.510;2023-08-06T04:30:18;100401.88;;;17.01;50.61
21988;BME280;11158;53.404;-1.510;2023-08-06T04:33:02;100401.00;;;17.07;50.58
21988;BME280;11158;53.404;-1.510;2023-08-06T04:35:47;100403.97;;;16.99;50.72
21988;BME280;11158;53.404;-1.510;2023-08-06T04:38:31;100404.28;;;17.09;50.59
21988;BME280;11158;53.404;-1.510;2023-08-06T04:41:14;100403.69;;;17.07;51.01
21988;BME280;11158;53.404;-1.510;2023-08-06T04:43:58;100404.47;;;17.26;50.48
21988;BME280;11158;53.404;-1.510;2023-08-06T04:46:42;100406.03;;;17.33;50.43
21988;BME280;11158;53.404;-1.510;2023-08-06T04:49:26;100409.66;;;17.27;50.66
21988;BME280;11158;53.404;-1.510;2023-08-06T04:52:10;100407.28;;;17.01;51.57
21988;BME280;11158;53.404;-1.510;2023-08-06T04:54:55;100406.97;;;17.27;50.96
21988;BME280;11158;53.404;-1.510;2023-08-06T04:57:39;100400.28;;;17.30;50.50
21988;BME280;11158;53.404;-1.510;2023-08-06T05:00:23;100407.16;;;16.95;51.00
21988;BME280;11158;53.404;-1.510;2023-08-06T05:03:07;100410.91;;;17.43;50.36
21988;BME280;11158;53.404;-1.510;2023-08-06T05:05:51;100416.16;;;17.38;50.32
21988;BME280;11158;53.404;-1.510;2023-08-06T05:08:35;100417.56;;;17.41;49.81
21988;BME280;11158;53.404;-1.510;2023-08-06T05:11:19;100416.66;;;17.47;49.22
21988;BME280;11158;53.404;-1.510;2023-08-06T05:14:03;100417.00;;;17.38;49.52
21988;BME280;11158;53.404;-1.510;2023-08-06T05:16:47;100424.63;;;17.42;49.54
21988;BME280;11158;53.404;-1.510;2023-08-06T05:19:31;100426.91;;;17.56;49.31
21988;BME280;11158;53.404;-1.510;2023-08-06T05:22:15;100424.13;;;17.75;49.20
21988;BME280;11158;53.404;-1.510;2023-08-06T05:24:59;100425.25;;;17.55;49.28
21988;BME280;11158;53.404;-1.510;2023-08-06T05:27:43;100425.31;;;17.67;49.09
21988;BME280;11158;53.404;-1.510;2023-08-06T05:30:28;100431.53;;;17.37;49.94
21988;BME280;11158;53.404;-1.510;2023-08-06T05:33:12;100425.78;;;17.64;49.32
21988;BME280;11158;53.404;-1.510;2023-08-06T05:35:56;100426.94;;;17.68;48.66
21988;BME280;11158;53.404;-1.510;2023-08-06T05:38:40;100430.06;;;17.84;48.98
21988;BME280;11158;53.404;-1.510;2023-08-06T05:41:24;100436.97;;;17.49;49.23
21988;BME280;11158;53.404;-1.510;2023-08-06T05:44:08;100438.19;;;17.84;48.66
21988;BME280;11158;53.404;-1.510;2023-08-06T05:46:52;100450.03;;;18.25;47.85
21988;BME280;11158;53.404;-1.510;2023-08-06T05:49:37;100457.13;;;17.65;48.62
21988;BME280;11158;53.404;-1.510;2023-08-06T05:52:21;100458.84;;;17.48;49.30
21988;BME280;11158;53.404;-1.510;2023-08-06T05:55:05;100466.13;;;17.77;48.16
21988;BME280;11158;53.404;-1.510;2023-08-06T05:57:49;100457.53;;;18.23;47.79
21988;BME280;11158;53.404;-1.510;2023-08-06T06:00:35;100459.31;;;18.52;47.27
21988;BME280;11158;53.404;-1.510;2023-08-06T06:03:19;100465.22;;;18.26;47.29
21988;BME280;11158;53.404;-1.510;2023-08-06T06:06:03;100466.38;;;18.30;47.32
21988;BME280;11158;53.404;-1.510;2023-08-06T06:08:48;100467.56;;;18.46;46.64
21988;BME280;11158;53.404;-1.510;2023-08-06T06:11:32;100470.53;;;18.44;46.73
21988;BME280;11158;53.404;-1.510;2023-08-06T06:14:17;100462.88;;;18.65;46.57
21988;BME280;11158;53.404;-1.510;2023-08-06T06:17:02;100475.81;;;18.62;46.64
21988;BME280;11158;53.404;-1.510;2023-08-06T06:19:46;100473.81;;;18.93;45.71
21988;BME280;11158;53.404;-1.510;2023-08-06T06:22:30;100474.44;;;19.24;45.18
21988;BME280;11158;53.404;-1.510;2023-08-06T06:25:14;100469.09;;;19.81;44.21
21988;BME280;11158;53.404;-1.510;2023-08-06T06:27:58;100479.28;;;19.91;44.00
21988;BME280;11158;53.404;-1.510;2023-08-06T06:30:42;100479.16;;;19.98;43.59
21988;BME280;11158;53.404;-1.510;2023-08-06T06:33:27;100487.28;;;19.98;43.89
21988;BME280;11158;53.404;-1.510;2023-08-06T06:36:11;100485.50;;;20.20;42.70
21988;BME280;11158;53.404;-1.510;2023-08-06T06:38:55;100491.75;;;21.10;41.68
21988;BME280;11158;53.404;-1.510;2023-08-06T06:41:39;100476.03;;;23.49;37.24
21988;BME280;11158;53.404;-1.510;2023-08-06T06:44:23;100483.22;;;23.80;35.13
21988;BME280;11158;53.404;-1.510;2023-08-06T06:47:07;100496.59;;;22.29;37.78
21988;BME280;11158;53.404;-1.510;2023-08-06T06:49:51;100490.69;;;21.83;38.77
21988;BME280;11158;53.404;-1.510;2023-08-06T06:52:35;100497.56;;;21.41;40.19
21988;BME280;11158;53.404;-1.510;2023-08-06T06:55:19;100494.22;;;22.10;38.76
21988;BME280;11158;53.404;-1.510;2023-08-06T06:58:03;100503.00;;;22.17;38.20
21988;BME280;11158;53.404;-1.510;2023-08-06T07:00:48;100500.94;;;22.03;37.78
21988;BME280;11158;53.404;-1.510;2023-08-06T07:03:32;100503.56;;;21.21;40.16
21988;BME280;11158;53.404;-1.510;2023-08-06T07:06:16;100496.28;;;21.27;39.74
21988;BME280;11158;53.404;-1.510;2023-08-06T07:09:01;100512.38;;;20.22;41.48
21988;BME280;11158;53.404;-1.510;2023-08-06T07:11:46;100516.06;;;19.70;43.06
21988;BME280;11158;53.404;-1.510;2023-08-06T07:14:30;100513.72;;;18.98;44.83
21988;BME280;11158;53.404;-1.510;2023-08-06T07:17:14;100513.34;;;19.99;43.22
21988;BME280;11158;53.404;-1.510;2023-08-06T07:19:59;100507.13;;;20.66;41.83
21988;BME280;11158;53.404;-1.510;2023-08-06T07:22:44;100509.78;;;20.78;40.15
21988;BME280;11158;53.404;-1.510;2023-08-06T07:25:28;100507.47;;;20.69;39.87
21988;BME280;11158;53.404;-1.510;2023-08-06T07:28:13;100506.44;;;20.92;39.97
21988;BME280;11158;53.404;-1.510;2023-08-06T07:30:57;100521.22;;;21.63;38.86
21988;BME280;11158;53.404;-1.510;2023-08-06T07:33:42;100521.56;;;21.05;39.62
21988;BME280;11158;53.404;-1.510;2023-08-06T07:36:26;100515.66;;;20.24;40.91
21988;BME280;11158;53.404;-1.510;2023-08-06T07:39:10;100527.84;;;19.93;41.67
21988;BME280;11158;53.404;-1.510;2023-08-06T07:41:54;100525.19;;;19.81;42.00
21988;BME280;11158;53.404;-1.510;2023-08-06T07:44:38;100521.75;;;19.85;41.58
21988;BME280;11158;53.404;-1.510;2023-08-06T07:47:23;100527.31;;;19.91;41.22
21988;BME280;11158;53.404;-1.510;2023-08-06T07:50:07;100524.34;;;19.92;41.20
21988;BME280;11158;53.404;-1.510;2023-08-06T07:52:52;100527.34;;;20.24;41.48
21988;BME280;11158;53.404;-1.510;2023-08-06T07:55:36;100537.41;;;20.75;40.55
21988;BME280;11158;53.404;-1.510;2023-08-06T07:58:20;100540.13;;;20.91;39.26
21988;BME280;11158;53.404;-1.510;2023-08-06T08:01:06;100542.41;;;20.49;40.03
21988;BME280;11158;53.404;-1.510;2023-08-06T08:03:50;100542.88;;;20.58;40.44
21988;BME280;11158;53.404;-1.510;2023-08-06T08:06:35;100545.88;;;21.78;38.38
21988;BME280;11158;53.404;-1.510;2023-08-06T08:09:20;100545.81;;;20.90;39.23
21988;BME280;11158;53.404;-1.510;2023-08-06T08:12:04;100547.06;;;20.82;40.37
21988;BME280;11158;53.404;-1.510;2023-08-06T08:14:48;100545.19;;;21.44;38.40
21988;BME280;11158;53.404;-1.510;2023-08-06T08:17:32;100543.50;;;20.82;38.98
21988;BME280;11158;53.404;-1.510;2023-08-06T08:20:18;100547.53;;;21.35;38.24
21988;BME280;11158;53.404;-1.510;2023-08-06T08:23:02;100542.75;;;21.25;39.22
21988;BME280;11158;53.404;-1.510;2023-08-06T08:25:46;100549.47;;;21.40;38.84
21988;BME280;11158;53.404;-1.510;2023-08-06T08:28:30;100557.53;;;20.28;40.09
21988;BME280;11158;53.404;-1.510;2023-08-06T08:31:15;100550.59;;;20.66;39.68
21988;BME280;11158;53.404;-1.510;2023-08-06T08:34:00;100550.94;;;21.47;38.16
21988;BME280;11158;53.404;-1.510;2023-08-06T08:36:45;100551.19;;;21.46;37.12
21988;BME280;11158;53.404;-1.510;2023-08-06T08:39:33;100549.91;;;21.98;37.33
21988;BME280;11158;53.404;-1.510;2023-08-06T08:42:17;100546.63;;;20.90;39.30
21988;BME280;11158;53.404;-1.510;2023-08-06T08:45:02;100543.78;;;21.19;38.52
21988;BME280;11158;53.404;-1.510;2023-08-06T08:47:48;100543.66;;;21.53;38.35
21988;BME280;11158;53.404;-1.510;2023-08-06T08:50:33;100546.72;;;21.79;37.40
21988;BME280;11158;53.404;-1.510;2023-08-06T08:53:17;100543.38;;;21.32;38.23
21988;BME280;11158;53.404;-1.510;2023-08-06T08:56:02;100553.81;;;22.34;36.86
21988;BME280;11158;53.404;-1.510;2023-08-06T08:58:46;100551.53;;;21.99;37.29
21988;BME280;11158;53.404;-1.510;2023-08-06T09:01:30;100547.75;;;22.59;36.14
21988;BME280;11158;53.404;-1.510;2023-08-06T09:04:14;100542.06;;;23.56;35.39
21988;BME280;11158;53.404;-1.510;2023-08-06T09:06:59;100548.94;;;22.36;36.67
21988;BME280;11158;53.404;-1.510;2023-08-06T09:09:47;100546.78;;;22.75;36.04
21988;BME280;11158;53.404;-1.510;2023-08-06T09:12:32;100553.78;;;21.58;37.80
21988;BME280;11158;53.404;-1.510;2023-08-06T09:15:17;100555.41;;;21.37;37.72
21988;BME280;11158;53.404;-1.510;2023-08-06T09:18:09;100563.28;;;20.60;38.96
21988;BME280;11158;53.404;-1.510;2023-08-06T09:20:53;100566.69;;;20.39;39.96
21988;BME280;11158;53.404;-1.510;2023-08-06T09:23:37;100567.31;;;20.29;40.39
21988;BME280;11158;53.404;-1.510;2023-08-06T09:26:21;100564.28;;;20.42;40.21
21988;BME280;11158;53.404;-1.510;2023-08-06T09:29:06;100560.59;;;19.86;40.90
21988;BME280;11158;53.404;-1.510;2023-08-06T09:31:51;100561.44;;;20.03;41.02
21988;BME280;11158;53.404;-1.510;2023-08-06T09:34:39;100570.81;;;20.75;39.59
21988;BME280;11158;53.404;-1.510;2023-08-06T09:37:25;100573.59;;;20.01;40.88
21988;BME280;11158;53.404;-1.510;2023-08-06T09:40:29;100579.06;;;20.63;40.35
21988;BME280;11158;53.404;-1.510;2023-08-06T09:43:13;100581.13;;;20.73;39.95
21988;BME280;11158;53.404;-1.510;2023-08-06T09:45:58;100575.16;;;21.10;39.06
21988;BME280;11158;53.404;-1.510;2023-08-06T09:48:45;100582.78;;;20.74;39.02
21988;BME280;11158;53.404;-1.510;2023-08-06T09:51:30;100573.97;;;21.84;37.15
21988;BME280;11158;53.404;-1.510;2023-08-06T09:54:15;100582.66;;;21.81;36.93
21988;BME280;11158;53.404;-1.510;2023-08-06T09:57:00;100583.03;;;21.28;37.70
21988;BME280;11158;53.404;-1.510;2023-08-06T09:59:45;100590.03;;;21.24;38.21
21988;BME280;11158;53.404;-1.510;2023-08-06T10:02:32;100583.78;;;21.24;37.53
21988;BME280;11158;53.404;-1.510;2023-08-06T10:05:17;100586.53;;;22.17;36.31
21988;BME280;11158;53.404;-1.510;2023-08-06T10:08:03;100584.53;;;22.29;35.72
21988;BME280;11158;53.404;-1.510;2023-08-06T10:10:49;100578.63;;;21.88;36.43
21988;BME280;11158;53.404;-1.510;2023-08-06T10:13:33;100590.09;;;22.45;35.40
21988;BME280;11158;53.404;-1.510;2023-08-06T10:16:19;100581.41;;;21.93;36.55
21988;BME280;11158;53.404;-1.510;2023-08-06T10:19:05;100588.75;;;21.10;37.62
21988;BME280;11158;53.404;-1.510;2023-08-06T10:22:13;100589.22;;;21.63;37.95
21988;BME280;11158;53.404;-1.510;2023-08-06T10:24:58;100589.38;;;21.78;37.63
21988;BME280;11158;53.404;-1.510;2023-08-06T10:30:33;100589.34;;;21.34;38.10
21988;BME280;11158;53.404;-1.510;2023-08-06T10:33:19;100591.63;;;21.81;37.18
21988;BME280;11158;53.404;-1.510;2023-08-06T10:36:04;100595.16;;;21.60;37.97
21988;BME280;11158;53.404;-1.510;2023-08-06T10:38:52;100594.72;;;21.29;37.72
21988;BME280;11158;53.404;-1.510;2023-08-06T10:41:42;100586.69;;;21.39;37.83
21988;BME280;11158;53.404;-1.510;2023-08-06T10:44:26;100591.56;;;20.81;38.57
21988;BME280;11158;53.404;-1.510;2023-08-06T10:47:26;100585.47;;;21.08;38.28
21988;BME280;11158;53.404;-1.510;2023-08-06T10:50:16;100584.72;;;20.96;37.77
21988;BME280;11158;53.404;-1.510;2023-08-06T10:53:05;100590.81;;;21.59;38.18
21988;BME280;11158;53.404;-1.510;2023-08-06T10:55:52;100591.34;;;21.83;36.99
21988;BME280;11158;53.404;-1.510;2023-08-06T10:58:36;100588.41;;;20.56;38.88
21988;BME280;11158;53.404;-1.510;2023-08-06T11:01:22;100589.56;;;20.93;39.47
21988;BME280;11158;53.404;-1.510;2023-08-06T11:04:07;100591.66;;;21.86;37.00
21988;BME280;11158;53.404;-1.510;2023-08-06T11:06:54;100594.50;;;21.30;37.30
21988;BME280;11158;53.404;-1.510;2023-08-06T11:09:38;100594.03;;;21.17;37.95
21988;BME280;11158;53.404;-1.510;2023-08-06T11:12:22;100591.69;;;21.42;37.91
21988;BME280;11158;53.404;-1.510;2023-08-06T11:15:07;100584.91;;;21.67;37.18
21988;BME280;11158;53.404;-1.510;2023-08-06T11:17:52;100588.66;;;22.10;36.74
21988;BME280;11158;53.404;-1.510;2023-08-06T11:20:37;100587.94;;;21.70;36.19
21988;BME280;11158;53.404;-1.510;2023-08-06T11:23:21;100590.00;;;21.58;37.30
21988;BME280;11158;53.404;-1.510;2023-08-06T11:26:05;100591.78;;;22.46;34.97
21988;BME280;11158;53.404;-1.510;2023-08-06T11:28:50;100590.63;;;22.42;34.96
21988;BME280;11158;53.404;-1.510;2023-08-06T11:31:36;100596.00;;;22.09;35.29
21988;BME280;11158;53.404;-1.510;2023-08-06T11:34:20;100597.13;;;21.86;35.56
21988;BME280;11158;53.404;-1.510;2023-08-06T11:37:05;100596.34;;;21.69;35.81
21988;BME280;11158;53.404;-1.510;2023-08-06T11:39:50;100594.53;;;21.74;35.86
21988;BME280;11158;53.404;-1.510;2023-08-06T11:42:35;100584.22;;;22.58;33.57
21988;BME280;11158;53.404;-1.510;2023-08-06T11:45:24;100599.09;;;22.18;34.79
21988;BME280;11158;53.404;-1.510;2023-08-06T11:48:09;100593.31;;;22.36;34.38
21988;BME280;11158;53.404;-1.510;2023-08-06T11:50:56;100600.66;;;22.63;33.61
21988;BME280;11158;53.404;-1.510;2023-08-06T11:53:41;100595.31;;;22.46;33.71
21988;BME280;11158;53.404;-1.510;2023-08-06T11:56:30;100588.31;;;22.93;33.25
21988;BME280;11158;53.404;-1.510;2023-08-06T11:59:15;100586.16;;;23.32;33.10
21988;BME280;11158;53.404;-1.510;2023-08-06T12:02:03;100590.13;;;23.14;32.60
21988;BME280;11158;53.404;-1.510;2023-08-06T12:05:11;100590.25;;;23.35;32.94
21988;BME280;11158;53.404;-1.510;2023-08-06T12:07:58;100586.63;;;23.24;33.10
21988;BME280;11158;53.404;-1.510;2023-08-06T12:10:42;100583.09;;;23.76;32.72
21988;BME280;11158;53.404;-1.510;2023-08-06T12:13:27;100585.03;;;23.91;32.25
21988;BME280;11158;53.404;-1.510;2023-08-06T12:16:11;100594.28;;;23.27;31.82
21988;BME280;11158;53.404;-1.510;2023-08-06T12:18:55;100599.88;;;23.00;32.79
21988;BME280;11158;53.404;-1.510;2023-08-06T12:21:39;100599.13;;;22.77;33.17
21988;BME280;11158;53.404;-1.510;2023-08-06T12:24:23;100586.69;;;23.87;31.90
21988;BME280;11158;53.404;-1.510;2023-08-06T12:27:08;100593.53;;;23.95;31.37
21988;BME280;11158;53.404;-1.510;2023-08-06T12:29:52;100592.75;;;23.47;31.95
21988;BME280;11158;53.404;-1.510;2023-08-06T12:32:37;100593.53;;;23.37;32.21
21988;BME280;11158;53.404;-1.510;2023-08-06T12:35:21;100597.94;;;24.11;31.71
21988;BME280;11158;53.404;-1.510;2023-08-06T12:38:05;100592.22;;;23.50;32.47
21988;BME280;11158;53.404;-1.510;2023-08-06T12:40:51;100581.91;;;24.56;30.77
21988;BME280;11158;53.404;-1.510;2023-08-06T12:43:36;100582.94;;;24.24;32.09
21988;BME280;11158;53.404;-1.510;2023-08-06T12:46:20;100586.25;;;24.82;31.07
21988;BME280;11158;53.404;-1.510;2023-08-06T12:49:04;100592.81;;;24.81;31.48
21988;BME280;11158;53.404;-1.510;2023-08-06T12:51:49;100594.34;;;23.95;31.18
21988;BME280;11158;53.404;-1.510;2023-08-06T12:54:33;100596.22;;;23.32;32.03
21988;BME280;11158;53.404;-1.510;2023-08-06T12:57:23;100598.28;;;23.09;32.31
21988;BME280;11158;53.404;-1.510;2023-08-06T13:00:09;100603.84;;;22.92;33.01
21988;BME280;11158;53.404;-1.510;2023-08-06T13:02:53;100604.63;;;22.88;33.65
21988;BME280;11158;53.404;-1.510;2023-08-06T13:05:37;100600.19;;;23.61;33.04
21988;BME280;11158;53.404;-1.510;2023-08-06T13:08:21;100603.44;;;23.53;33.45
21988;BME280;11158;53.404;-1.510;2023-08-06T13:11:05;100601.03;;;23.62;33.45
21988;BME280;11158;53.404;-1.510;2023-08-06T13:13:50;100610.44;;;22.96;34.58
21988;BME280;11158;53.404;-1.510;2023-08-06T13:16:34;100601.34;;;22.86;34.62
21988;BME280;11158;53.404;-1.510;2023-08-06T13:19:19;100598.25;;;23.57;33.96
21988;BME280;11158;53.404;-1.510;2023-08-06T13:22:03;100592.75;;;24.20;32.78
21988;BME280;11158;53.404;-1.510;2023-08-06T13:24:49;100586.22;;;25.18;30.89
21988;BME280;11158;53.404;-1.510;2023-08-06T13:27:33;100587.34;;;24.66;30.78
21988;BME280;11158;53.404;-1.510;2023-08-06T13:30:17;100588.19;;;24.56;30.94
21988;BME280;11158;53.404;-1.510;2023-08-06T13:33:02;100592.75;;;24.15;32.56
21988;BME280;11158;53.404;-1.510;2023-08-06T13:35:48;100603.53;;;23.74;33.61
21988;BME280;11158;53.404;-1.510;2023-08-06T13:38:34;100596.63;;;23.08;34.86
21988;BME280;11158;53.404;-1.510;2023-08-06T13:41:19;100606.97;;;22.74;36.00
21988;BME280;11158;53.404;-1.510;2023-08-06T13:44:04;100612.19;;;22.75;35.62
21988;BME280;11158;53.404;-1.510;2023-08-06T13:46:48;100607.44;;;22.98;35.41
21988;BME280;11158;53.404;-1.510;2023-08-06T13:49:32;100614.97;;;22.86;35.54
21988;BME280;11158;53.404;-1.510;2023-08-06T13:52:17;100621.00;;;22.93;35.73
21988;BME280;11158;53.404;-1.510;2023-08-06T13:55:01;100616.78;;;23.02;35.66
21988;BME280;11158;53.404;-1.510;2023-08-06T14:00:31;100616.97;;;22.95;36.03
21988;BME280;11158;53.404;-1.510;2023-08-06T14:03:15;100612.78;;;23.73;34.73
21988;BME280;11158;53.404;-1.510;2023-08-06T14:05:59;100612.13;;;23.45;34.36
21988;BME280;11158;53.404;-1.510;2023-08-06T14:08:43;100611.22;;;21.61;37.68
21988;BME280;11158;53.404;-1.510;2023-08-06T14:11:28;100612.50;;;21.75;37.89
21988;BME280;11158;53.404;-1.510;2023-08-06T14:14:12;100628.06;;;22.02;37.37
21988;BME280;11158;53.404;-1.510;2023-08-06T14:16:57;100628.88;;;22.25;37.08
21988;BME280;11158;53.404;-1.510;2023-08-06T14:19:41;100626.97;;;22.03;37.55
21988;BME280;11158;53.404;-1.510;2023-08-06T14:22:26;100626.03;;;21.92;37.65
21988;BME280;11158;53.404;-1.510;2023-08-06T14:25:10;100630.25;;;22.27;36.79